sensor_id;sensor_type;location;lat;lon;timestamp;P1;durP1;ratioP1;P2;durP2;ratioP2
30505;SDS011;17292;51.600;4.994;2023-08-24T00:00:56;3.55;;;3.25;;
30505;SDS011;17292;51.600;4.994;2023-08-24T00:03:22;4.95;;;3.83;;
30505;SDS011;17292;51.600;4.994;2023-08-24T00:05:48;4.30;;;3.13;;
30505;SDS011;17292;51.600;4.994;2023-08-24T00:08:14;5.07;;;3.97;;
30505;SDS011;17292;51.600;4.994;2023-08-24T00:10:43;6.20;;;3.88;;
30505;SDS011;17292;51.600;4.994;2023-08-24T00:13:11;3.90;;;3.50;;
30505;SDS011;17292;51.600;4.994;2023-08-24T00:15:38;5.80;;;3.45;;
30505;SDS011;17292;51.600;4.994;2023-08-24T00:18:04;4.63;;;3.70;;
30505;SDS011;17292;51.600;4.994;2023-08-24T00:20:31;5.20;;;3.83;;
30505;SDS011;17292;51.600;4.994;2023-08-24T00:23:00;5.90;;;3.70;;
30505;SDS011;17292;51.600;4.994;2023-08-24T00:25:26;6.43;;;3.58;;
30505;SDS011;17292;51.600;4.994;2023-08-24T00:27:53;7.78;;;3.78;;
30505;SDS011;17292;51.600;4.994;2023-08-24T00:30:19;5.13;;;3.72;;
30505;SDS011;17292;51.600;4.994;2023-08-24T00:32:46;5.57;;;3.72;;
30505;SDS011;17292;51.600;4.994;2023-08-24T00:35:12;7.20;;;3.50;;
30505;SDS011;17292;51.600;4.994;2023-08-24T00:37:38;6.53;;;3.40;;
30505;SDS011;17292;51.600;4.994;2023-08-24T00:40:05;3.80;;;3.42;;
30505;SDS011;17292;51.600;4.994;2023-08-24T00:42:41;6.43;;;3.63;;
30505;SDS011;17292;51.600;4.994;2023-08-24T00:45:08;5.82;;;3.67;;
30505;SDS011;17292;51.600;4.994;2023-08-24T00:47:35;4.85;;;3.78;;
30505;SDS011;17292;51.600;4.994;2023-08-24T00:50:02;7.53;;;3.67;;
30505;SDS011;17292;51.600;4.994;2023-08-24T00:52:29;5.72;;;3.45;;
30505;SDS011;17292;51.600;4.994;2023-08-24T00:54:57;7.18;;;3.95;;
30505;SDS011;17292;51.600;4.994;2023-08-24T00:57:23;9.02;;;3.58;;
30505;SDS011;17292;51.600;4.994;2023-08-24T00:59:50;12.35;;;3.28;;
30505;SDS011;17292;51.600;4.994;2023-08-24T01:02:16;5.03;;;3.20;;
30505;SDS011;17292;51.600;4.994;2023-08-24T01:04:42;4.82;;;3.35;;
30505;SDS011;17292;51.600;4.994;2023-08-24T01:07:08;4.68;;;3.20;;
30505;SDS011;17292;51.600;4.994;2023-08-24T01:09:35;4.10;;;3.53;;
30505;SDS011;17292;51.600;4.994;2023-08-24T01:14:41;5.22;;;3.22;;
30505;SDS011;17292;51.600;4.994;2023-08-24T01:17:09;4.15;;;3.47;;
30505;SDS011;17292;51.600;4.994;2023-08-24T01:19:37;4.68;;;3.70;;
30505;SDS011;17292;51.600;4.994;2023-08-24T01:22:08;4.95;;;3.42;;
30505;SDS011;17292;51.600;4.994;2023-08-24T01:24:41;4.43;;;3.47;;
30505;SDS011;17292;51.600;4.994;2023-08-24T01:27:11;6.93;;;3.67;;
30505;SDS011;17292;51.600;4.994;2023-08-24T01:29:38;6.72;;;3.42;;
30505;SDS011;17292;51.600;4.994;2023-08-24T01:32:05;4.38;;;3.55;;
30505;SDS011;17292;51.600;4.994;2023-08-24T01:34:39;5.13;;;3.65;;
30505;SDS011;17292;51.600;4.994;2023-08-24T01:37:06;4.35;;;3.28;;
30505;SDS011;17292;51.600;4.994;2023-08-24T01:42:09;3.85;;;3.45;;
30505;SDS011;17292;51.600;4.994;2023-08-24T01:44:37;5.88;;;3.22;;
30505;SDS011;17292;51.600;4.994;2023-08-24T01:47:05;3.42;;;3.20;;
30505;SDS011;17292;51.600;4.994;2023-08-24T01:49:34;3.83;;;3.35;;
30505;SDS011;17292;51.600;4.994;2023-08-24T01:52:01;4.35;;;3.22;;
30505;SDS011;17292;51.600;4.994;2023-08-24T01:54:27;4.60;;;3.17;;
30505;SDS011;17292;51.600;4.994;2023-08-24T01:56:54;3.97;;;3.58;;
30505;SDS011;17292;51.600;4.994;2023-08-24T01:59:20;3.60;;;3.28;;
30505;SDS011;17292;51.600;4.994;2023-08-24T02:01:46;6.07;;;3.65;;
30505;SDS011;17292;51.600;4.994;2023-08-24T02:04:12;4.28;;;2.97;;
30505;SDS011;17292;51.600;4.994;2023-08-24T02:06:38;3.80;;;3.20;;
30505;SDS011;17292;51.600;4.994;2023-08-24T02:09:05;4.32;;;3.50;;
30505;SDS011;17292;51.600;4.994;2023-08-24T02:11:31;3.03;;;2.80;;
30505;SDS011;17292;51.600;4.994;2023-08-24T02:13:57;5.72;;;3.70;;
30505;SDS011;17292;51.600;4.994;2023-08-24T02:16:23;4.15;;;3.35;;
30505;SDS011;17292;51.600;4.994;2023-08-24T02:18:49;5.85;;;3.55;;
30505;SDS011;17292;51.600;4.994;2023-08-24T02:21:16;4.75;;;3.42;;
30505;SDS011;17292;51.600;4.994;2023-08-24T02:23:42;5.43;;;3.20;;
30505;SDS011;17292;51.600;4.994;2023-08-24T02:26:08;5.00;;;3.47;;
30505;SDS011;17292;51.600;4.994;2023-08-24T02:28:36;3.35;;;3.05;;
30505;SDS011;17292;51.600;4.994;2023-08-24T02:31:04;4.22;;;3.53;;
30505;SDS011;17292;51.600;4.994;2023-08-24T02:33:30;3.90;;;3.50;;
30505;SDS011;17292;51.600;4.994;2023-08-24T02:35:56;4.00;;;3.65;;
30505;SDS011;17292;51.600;4.994;2023-08-24T02:38:23;4.15;;;3.45;;
30505;SDS011;17292;51.600;4.994;2023-08-24T02:40:49;9.23;;;3.20;;
30505;SDS011;17292;51.600;4.994;2023-08-24T02:43:15;4.22;;;3.20;;
30505;SDS011;17292;51.600;4.994;2023-08-24T02:45:41;5.25;;;3.40;;
30505;SDS011;17292;51.600;4.994;2023-08-24T02:48:07;4.30;;;3.28;;
30505;SDS011;17292;51.600;4.994;2023-08-24T02:50:34;3.80;;;3.20;;
30505;SDS011;17292;51.600;4.994;2023-08-24T02:53:00;3.90;;;3.50;;
30505;SDS011;17292;51.600;4.994;2023-08-24T02:55:26;4.75;;;3.15;;
30505;SDS011;17292;51.600;4.994;2023-08-24T02:57:53;3.75;;;3.20;;
30505;SDS011;17292;51.600;4.994;2023-08-24T03:00:19;3.58;;;3.08;;
30505;SDS011;17292;51.600;4.994;2023-08-24T03:02:45;4.18;;;3.10;;
30505;SDS011;17292;51.600;4.994;2023-08-24T03:05:11;3.88;;;2.92;;
30505;SDS011;17292;51.600;4.994;2023-08-24T03:07:37;7.00;;;3.25;;
30505;SDS011;17292;51.600;4.994;2023-08-24T03:10:03;6.82;;;3.30;;
30505;SDS011;17292;51.600;4.994;2023-08-24T03:12:29;3.75;;;3.05;;
30505;SDS011;17292;51.600;4.994;2023-08-24T03:14:55;3.60;;;3.25;;
30505;SDS011;17292;51.600;4.994;2023-08-24T03:17:22;5.95;;;2.92;;
30505;SDS011;17292;51.600;4.994;2023-08-24T03:19:48;6.28;;;3.10;;
30505;SDS011;17292;51.600;4.994;2023-08-24T03:22:15;3.70;;;2.97;;
30505;SDS011;17292;51.600;4.994;2023-08-24T03:24:41;4.10;;;3.25;;
30505;SDS011;17292;51.600;4.994;2023-08-24T03:27:07;4.97;;;3.10;;
30505;SDS011;17292;51.600;4.994;2023-08-24T03:29:33;3.08;;;2.80;;
30505;SDS011;17292;51.600;4.994;2023-08-24T03:31:59;5.55;;;3.15;;
30505;SDS011;17292;51.600;4.994;2023-08-24T03:34:25;4.22;;;3.42;;
30505;SDS011;17292;51.600;4.994;2023-08-24T03:36:52;3.38;;;3.08;;
30505;SDS011;17292;51.600;4.994;2023-08-24T03:39:18;4.78;;;3.13;;
30505;SDS011;17292;51.600;4.994;2023-08-24T03:41:44;3.83;;;3.20;;
30505;SDS011;17292;51.600;4.994;2023-08-24T03:44:10;4.07;;;3.22;;
30505;SDS011;17292;51.600;4.994;2023-08-24T03:46:36;4.55;;;3.20;;
30505;SDS011;17292;51.600;4.994;2023-08-24T03:49:02;3.30;;;2.97;;
30505;SDS011;17292;51.600;4.994;2023-08-24T03:51:29;4.78;;;3.13;;
30505;SDS011;17292;51.600;4.994;2023-08-24T03:53:55;3.88;;;3.10;;
30505;SDS011;17292;51.600;4.994;2023-08-24T03:56:21;6.57;;;3.08;;
30505;SDS011;17292;51.600;4.994;2023-08-24T03:58:47;5.30;;;3.28;;
30505;SDS011;17292;51.600;4.994;2023-08-24T04:01:14;3.72;;;3.33;;
30505;SDS011;17292;51.600;4.994;2023-08-24T04:03:40;3.60;;;3.30;;
30505;SDS011;17292;51.600;4.994;2023-08-24T04:06:06;3.35;;;3.05;;
30505;SDS011;17292;51.600;4.994;2023-08-24T04:08:32;3.15;;;2.85;;
30505;SDS011;17292;51.600;4.994;2023-08-24T04:10:59;4.65;;;3.08;;
30505;SDS011;17292;51.600;4.994;2023-08-24T04:13:25;3.20;;;2.90;;
30505;SDS011;17292;51.600;4.994;2023-08-24T04:15:52;3.03;;;2.83;;
30505;SDS011;17292;51.600;4.994;2023-08-24T04:18:18;4.55;;;2.85;;
30505;SDS011;17292;51.600;4.994;2023-08-24T04:20:44;3.55;;;3.25;;
30505;SDS011;17292;51.600;4.994;2023-08-24T04:23:12;4.30;;;3.03;;
30505;SDS011;17292;51.600;4.994;2023-08-24T04:25:41;3.50;;;3.20;;
30505;SDS011;17292;51.600;4.994;2023-08-24T04:28:08;3.15;;;2.88;;
30505;SDS011;17292;51.600;4.994;2023-08-24T04:30:34;4.15;;;3.33;;
30505;SDS011;17292;51.600;4.994;2023-08-24T04:33:01;3.42;;;3.08;;
30505;SDS011;17292;51.600;4.994;2023-08-24T04:35:28;3.58;;;3.28;;
30505;SDS011;17292;51.600;4.994;2023-08-24T04:37:54;3.35;;;3.03;;
30505;SDS011;17292;51.600;4.994;2023-08-24T04:40:20;4.90;;;3.45;;
30505;SDS011;17292;51.600;4.994;2023-08-24T04:42:47;3.58;;;3.28;;
30505;SDS011;17292;51.600;4.994;2023-08-24T04:45:13;4.68;;;3.22;;
30505;SDS011;17292;51.600;4.994;2023-08-24T04:47:39;3.50;;;3.20;;
30505;SDS011;17292;51.600;4.994;2023-08-24T04:50:06;3.65;;;3.22;;
30505;SDS011;17292;51.600;4.994;2023-08-24T04:52:32;3.53;;;3.20;;
30505;SDS011;17292;51.600;4.994;2023-08-24T04:54:59;6.28;;;3.83;;
30505;SDS011;17292;51.600;4.994;2023-08-24T04:57:26;3.67;;;3.38;;
30505;SDS011;17292;51.600;4.994;2023-08-24T04:59:52;3.50;;;3.20;;
30505;SDS011;17292;51.600;4.994;2023-08-24T05:02:18;3.15;;;2.75;;
30505;SDS011;17292;51.600;4.994;2023-08-24T05:04:44;6.60;;;3.28;;
30505;SDS011;17292;51.600;4.994;2023-08-24T05:07:10;4.07;;;3.22;;
30505;SDS011;17292;51.600;4.994;2023-08-24T05:09:36;4.60;;;3.17;;
30505;SDS011;17292;51.600;4.994;2023-08-24T05:12:03;6.82;;;3.25;;
30505;SDS011;17292;51.600;4.994;2023-08-24T05:14:29;6.35;;;3.20;;
30505;SDS011;17292;51.600;4.994;2023-08-24T05:16:55;4.32;;;3.35;;
30505;SDS011;17292;51.600;4.994;2023-08-24T05:19:21;6.63;;;3.53;;
30505;SDS011;17292;51.600;4.994;2023-08-24T05:21:47;5.32;;;3.40;;
30505;SDS011;17292;51.600;4.994;2023-08-24T05:24:13;9.05;;;3.95;;
30505;SDS011;17292;51.600;4.994;2023-08-24T05:26:39;4.22;;;3.05;;
30505;SDS011;17292;51.600;4.994;2023-08-24T05:29:05;5.60;;;3.33;;
30505;SDS011;17292;51.600;4.994;2023-08-24T05:31:32;6.32;;;3.20;;
30505;SDS011;17292;51.600;4.994;2023-08-24T05:33:58;8.10;;;3.47;;
30505;SDS011;17292;51.600;4.994;2023-08-24T05:36:24;9.05;;;3.45;;
30505;SDS011;17292;51.600;4.994;2023-08-24T05:38:50;6.80;;;3.10;;
30505;SDS011;17292;51.600;4.994;2023-08-24T05:41:20;8.60;;;3.50;;
30505;SDS011;17292;51.600;4.994;2023-08-24T05:43:46;5.78;;;3.28;;
30505;SDS011;17292;51.600;4.994;2023-08-24T05:46:12;7.85;;;3.22;;
30505;SDS011;17292;51.600;4.994;2023-08-24T05:48:38;4.38;;;3.00;;
30505;SDS011;17292;51.600;4.994;2023-08-24T05:51:04;5.20;;;3.30;;
30505;SDS011;17292;51.600;4.994;2023-08-24T05:53:32;13.35;;;4.00;;
30505;SDS011;17292;51.600;4.994;2023-08-24T05:55:58;8.35;;;3.95;;
30505;SDS011;17292;51.600;4.994;2023-08-24T05:58:25;14.45;;;6.70;;
30505;SDS011;17292;51.600;4.994;2023-08-24T06:00:57;10.43;;;6.90;;
30505;SDS011;17292;51.600;4.994;2023-08-24T06:03:24;9.77;;;6.35;;
30505;SDS011;17292;51.600;4.994;2023-08-24T06:05:50;14.95;;;5.65;;
30505;SDS011;17292;51.600;4.994;2023-08-24T06:08:17;9.43;;;4.53;;
30505;SDS011;17292;51.600;4.994;2023-08-24T06:10:43;7.05;;;4.88;;
30505;SDS011;17292;51.600;4.994;2023-08-24T06:13:09;8.68;;;4.53;;
30505;SDS011;17292;51.600;4.994;2023-08-24T06:15:35;5.95;;;3.75;;
30505;SDS011;17292;51.600;4.994;2023-08-24T06:18:01;8.45;;;4.03;;
30505;SDS011;17292;51.600;4.994;2023-08-24T06:20:27;11.25;;;4.03;;
30505;SDS011;17292;51.600;4.994;2023-08-24T06:22:54;7.20;;;3.78;;
30505;SDS011;17292;51.600;4.994;2023-08-24T06:25:20;12.38;;;3.97;;
30505;SDS011;17292;51.600;4.994;2023-08-24T06:27:48;10.23;;;3.97;;
30505;SDS011;17292;51.600;4.994;2023-08-24T06:30:14;8.43;;;3.85;;
30505;SDS011;17292;51.600;4.994;2023-08-24T06:32:40;9.25;;;3.50;;
30505;SDS011;17292;51.600;4.994;2023-08-24T06:35:06;7.72;;;3.33;;
30505;SDS011;17292;51.600;4.994;2023-08-24T06:37:33;7.05;;;3.50;;
30505;SDS011;17292;51.600;4.994;2023-08-24T06:39:59;10.77;;;3.88;;
30505;SDS011;17292;51.600;4.994;2023-08-24T06:42:25;8.30;;;3.63;;
30505;SDS011;17292;51.600;4.994;2023-08-24T06:44:51;17.17;;;3.70;;
30505;SDS011;17292;51.600;4.994;2023-08-24T06:47:18;12.93;;;3.38;;
30505;SDS011;17292;51.600;4.994;2023-08-24T06:49:44;8.15;;;3.47;;
30505;SDS011;17292;51.600;4.994;2023-08-24T06:52:10;10.32;;;3.55;;
30505;SDS011;17292;51.600;4.994;2023-08-24T06:54:36;7.90;;;3.28;;
30505;SDS011;17292;51.600;4.994;2023-08-24T06:57:02;8.65;;;3.65;;
30505;SDS011;17292;51.600;4.994;2023-08-24T06:59:28;9.18;;;3.65;;
30505;SDS011;17292;51.600;4.994;2023-08-24T07:01:55;6.80;;;3.15;;
30505;SDS011;17292;51.600;4.994;2023-08-24T07:04:22;9.52;;;3.25;;
30505;SDS011;17292;51.600;4.994;2023-08-24T07:06:48;7.80;;;3.22;;
30505;SDS011;17292;51.600;4.994;2023-08-24T07:09:14;11.38;;;3.90;;
30505;SDS011;17292;51.600;4.994;2023-08-24T07:11:40;9.63;;;3.50;;
30505;SDS011;17292;51.600;4.994;2023-08-24T07:14:06;5.68;;;3.03;;
30505;SDS011;17292;51.600;4.994;2023-08-24T07:16:33;7.93;;;3.08;;
30505;SDS011;17292;51.600;4.994;2023-08-24T07:18:59;13.15;;;3.33;;
30505;SDS011;17292;51.600;4.994;2023-08-24T07:21:25;12.77;;;3.47;;
30505;SDS011;17292;51.600;4.994;2023-08-24T07:23:51;15.38;;;3.67;;
30505;SDS011;17292;51.600;4.994;2023-08-24T07:26:17;10.30;;;3.60;;
30505;SDS011;17292;51.600;4.994;2023-08-24T07:28:43;6.75;;;2.97;;
30505;SDS011;17292;51.600;4.994;2023-08-24T07:31:10;12.70;;;3.38;;
30505;SDS011;17292;51.600;4.994;2023-08-24T07:33:39;9.57;;;3.35;;
30505;SDS011;17292;51.600;4.994;2023-08-24T07:36:08;9.95;;;3.03;;
30505;SDS011;17292;51.600;4.994;2023-08-24T07:38:35;13.85;;;3.72;;
30505;SDS011;17292;51.600;4.994;2023-08-24T07:41:01;12.35;;;3.53;;
30505;SDS011;17292;51.600;4.994;2023-08-24T07:43:28;6.22;;;3.17;;
30505;SDS011;17292;51.600;4.994;2023-08-24T07:45:54;7.88;;;3.05;;
30505;SDS011;17292;51.600;4.994;2023-08-24T07:48:20;11.10;;;3.05;;
30505;SDS011;17292;51.600;4.994;2023-08-24T07:50:46;8.30;;;3.00;;
30505;SDS011;17292;51.600;4.994;2023-08-24T07:53:12;8.82;;;3.13;;
30505;SDS011;17292;51.600;4.994;2023-08-24T07:55:39;5.57;;;3.30;;
30505;SDS011;17292;51.600;4.994;2023-08-24T07:58:05;9.00;;;2.97;;
30505;SDS011;17292;51.600;4.994;2023-08-24T08:00:32;14.10;;;3.25;;
30505;SDS011;17292;51.600;4.994;2023-08-24T08:02:58;9.55;;;3.30;;
30505;SDS011;17292;51.600;4.994;2023-08-24T08:05:24;9.88;;;3.75;;
30505;SDS011;17292;51.600;4.994;2023-08-24T08:07:50;21.73;;;3.92;;
30505;SDS011;17292;51.600;4.994;2023-08-24T08:10:17;8.52;;;3.42;;
30505;SDS011;17292;51.600;4.994;2023-08-24T08:12:45;8.23;;;3.05;;
30505;SDS011;17292;51.600;4.994;2023-08-24T08:15:11;12.55;;;3.40;;
30505;SDS011;17292;51.600;4.994;2023-08-24T08:17:37;6.95;;;2.88;;
30505;SDS011;17292;51.600;4.994;2023-08-24T08:20:03;10.02;;;3.38;;
30505;SDS011;17292;51.600;4.994;2023-08-24T08:22:30;5.88;;;3.03;;
30505;SDS011;17292;51.600;4.994;2023-08-24T08:25:00;8.10;;;2.85;;
30505;SDS011;17292;51.600;4.994;2023-08-24T08:27:26;7.05;;;3.78;;
30505;SDS011;17292;51.600;4.994;2023-08-24T08:29:53;8.77;;;3.25;;
30505;SDS011;17292;51.600;4.994;2023-08-24T08:32:19;9.13;;;3.88;;
30505;SDS011;17292;51.600;4.994;2023-08-24T08:34:45;8.15;;;3.25;;
30505;SDS011;17292;51.600;4.994;2023-08-24T08:37:11;8.95;;;3.72;;
30505;SDS011;17292;51.600;4.994;2023-08-24T08:39:37;12.30;;;3.70;;
30505;SDS011;17292;51.600;4.994;2023-08-24T08:42:03;5.20;;;3.10;;
30505;SDS011;17292;51.600;4.994;2023-08-24T08:44:30;8.68;;;3.05;;
30505;SDS011;17292;51.600;4.994;2023-08-24T08:46:57;6.18;;;3.20;;
30505;SDS011;17292;51.600;4.994;2023-08-24T08:49:23;9.55;;;3.58;;
30505;SDS011;17292;51.600;4.994;2023-08-24T08:51:49;8.23;;;3.42;;
30505;SDS011;17292;51.600;4.994;2023-08-24T08:54:16;7.65;;;3.55;;
30505;SDS011;17292;51.600;4.994;2023-08-24T08:56:42;6.95;;;3.28;;
30505;SDS011;17292;51.600;4.994;2023-08-24T08:59:09;8.95;;;3.25;;
30505;SDS011;17292;51.600;4.994;2023-08-24T09:01:37;7.30;;;3.45;;
30505;SDS011;17292;51.600;4.994;2023-08-24T09:04:03;13.80;;;3.88;;
30505;SDS011;17292;51.600;4.994;2023-08-24T09:06:31;8.60;;;3.70;;
30505;SDS011;17292;51.600;4.994;2023-08-24T09:08:57;8.25;;;3.53;;
30505;SDS011;17292;51.600;4.994;2023-08-24T09:11:23;9.98;;;4.05;;
30505;SDS011;17292;51.600;4.994;2023-08-24T09:13:50;10.15;;;3.80;;
30505;SDS011;17292;51.600;4.994;2023-08-24T09:16:16;11.68;;;4.10;;
30505;SDS011;17292;51.600;4.994;2023-08-24T09:18:46;11.45;;;3.50;;
30505;SDS011;17292;51.600;4.994;2023-08-24T09:21:13;10.15;;;3.97;;
30505;SDS011;17292;51.600;4.994;2023-08-24T09:23:43;8.50;;;3.70;;
30505;SDS011;17292;51.600;4.994;2023-08-24T09:26:12;7.00;;;3.38;;
30505;SDS011;17292;51.600;4.994;2023-08-24T09:28:39;9.98;;;3.67;;
30505;SDS011;17292;51.600;4.994;2023-08-24T09:31:08;9.70;;;3.33;;
30505;SDS011;17292;51.600;4.994;2023-08-24T09:33:35;6.00;;;3.28;;
30505;SDS011;17292;51.600;4.994;2023-08-24T09:36:01;10.85;;;3.78;;
30505;SDS011;17292;51.600;4.994;2023-08-24T09:38:32;10.80;;;3.80;;
30505;SDS011;17292;51.600;4.994;2023-08-24T09:41:01;6.07;;;3.38;;
30505;SDS011;17292;51.600;4.994;2023-08-24T09:43:29;9.07;;;3.92;;
30505;SDS011;17292;51.600;4.994;2023-08-24T09:45:56;8.98;;;3.40;;
30505;SDS011;17292;51.600;4.994;2023-08-24T09:48:24;8.40;;;3.85;;
30505;SDS011;17292;51.600;4.994;2023-08-24T09:50:50;8.68;;;3.53;;
30505;SDS011;17292;51.600;4.994;2023-08-24T09:53:18;8.43;;;3.40;;
30505;SDS011;17292;51.600;4.994;2023-08-24T09:58:15;8.93;;;3.65;;
30505;SDS011;17292;51.600;4.994;2023-08-24T10:00:43;9.32;;;3.60;;
30505;SDS011;17292;51.600;4.994;2023-08-24T10:03:11;8.82;;;3.42;;
30505;SDS011;17292;51.600;4.994;2023-08-24T10:05:41;10.48;;;3.60;;
30505;SDS011;17292;51.600;4.994;2023-08-24T10:08:09;10.98;;;4.05;;
30505;SDS011;17292;51.600;4.994;2023-08-24T10:10:35;8.98;;;4.20;;
30505;SDS011;17292;51.600;4.994;2023-08-24T10:13:06;7.88;;;3.70;;
30505;SDS011;17292;51.600;4.994;2023-08-24T10:15:34;14.23;;;4.35;;
30505;SDS011;17292;51.600;4.994;2023-08-24T10:18:00;7.75;;;3.92;;
30505;SDS011;17292;51.600;4.994;2023-08-24T10:20:27;13.50;;;3.75;;
30505;SDS011;17292;51.600;4.994;2023-08-24T10:22:53;7.88;;;3.50;;
30505;SDS011;17292;51.600;4.994;2023-08-24T10:25:20;11.75;;;3.72;;
30505;SDS011;17292;51.600;4.994;2023-08-24T10:27:46;9.63;;;4.03;;
30505;SDS011;17292;51.600;4.994;2023-08-24T10:30:15;14.02;;;3.92;;
30505;SDS011;17292;51.600;4.994;2023-08-24T10:32:41;7.03;;;3.65;;
30505;SDS011;17292;51.600;4.994;2023-08-24T10:35:08;10.43;;;4.20;;
30505;SDS011;17292;51.600;4.994;2023-08-24T10:37:34;12.98;;;4.07;;
30505;SDS011;17292;51.600;4.994;2023-08-24T10:40:01;7.00;;;3.67;;
30505;SDS011;17292;51.600;4.994;2023-08-24T10:42:29;7.60;;;4.07;;
30505;SDS011;17292;51.600;4.994;2023-08-24T10:45:09;7.45;;;3.45;;
30505;SDS011;17292;51.600;4.994;2023-08-24T10:47:43;15.65;;;4.78;;
30505;SDS011;17292;51.600;4.994;2023-08-24T10:50:11;8.80;;;4.18;;
30505;SDS011;17292;51.600;4.994;2023-08-24T10:52:37;16.02;;;3.83;;
30505;SDS011;17292;51.600;4.994;2023-08-24T10:55:04;14.05;;;4.93;;
30505;SDS011;17292;51.600;4.994;2023-08-24T10:57:35;10.05;;;4.15;;
30505;SDS011;17292;51.600;4.994;2023-08-24T11:00:05;9.65;;;4.32;;
30505;SDS011;17292;51.600;4.994;2023-08-24T11:02:44;10.98;;;4.20;;
30505;SDS011;17292;51.600;4.994;2023-08-24T11:07:56;9.95;;;4.05;;
30505;SDS011;17292;51.600;4.994;2023-08-24T11:10:23;10.23;;;4.00;;
30505;SDS011;17292;51.600;4.994;2023-08-24T11:13:06;13.02;;;4.10;;
30505;SDS011;17292;51.600;4.994;2023-08-24T11:15:33;12.77;;;4.15;;
30505;SDS011;17292;51.600;4.994;2023-08-24T11:20:44;20.27;;;4.45;;
30505;SDS011;17292;51.600;4.994;2023-08-24T11:23:11;13.30;;;4.93;;
30505;SDS011;17292;51.600;4.994;2023-08-24T11:25:37;16.00;;;4.25;;
30505;SDS011;17292;51.600;4.994;2023-08-24T11:28:03;18.42;;;5.30;;
30505;SDS011;17292;51.600;4.994;2023-08-24T11:30:33;14.70;;;4.95;;
30505;SDS011;17292;51.600;4.994;2023-08-24T11:33:00;12.23;;;4.93;;
30505;SDS011;17292;51.600;4.994;2023-08-24T11:35:27;14.18;;;4.55;;
30505;SDS011;17292;51.600;4.994;2023-08-24T11:37:54;15.88;;;4.70;;
30505;SDS011;17292;51.600;4.994;2023-08-24T11:40:20;9.40;;;4.45;;
30505;SDS011;17292;51.600;4.994;2023-08-24T11:42:55;9.48;;;4.78;;
30505;SDS011;17292;51.600;4.994;2023-08-24T11:45:21;15.25;;;4.10;;
30505;SDS011;17292;51.600;4.994;2023-08-24T11:47:48;14.48;;;4.63;;
30505;SDS011;17292;51.600;4.994;2023-08-24T11:50:14;16.38;;;5.25;;
30505;SDS011;17292;51.600;4.994;2023-08-24T11:52:41;11.15;;;4.90;;
30505;SDS011;17292;51.600;4.994;2023-08-24T11:55:08;9.90;;;4.70;;
30505;SDS011;17292;51.600;4.994;2023-08-24T11:57:34;13.10;;;4.80;;
30505;SDS011;17292;51.600;4.994;2023-08-24T12:00:02;10.52;;;4.50;;
30505;SDS011;17292;51.600;4.994;2023-08-24T12:02:29;11.45;;;4.57;;
30505;SDS011;17292;51.600;4.994;2023-08-24T12:04:55;10.23;;;5.18;;
30505;SDS011;17292;51.600;4.994;2023-08-24T12:07:22;12.50;;;5.03;;
30505;SDS011;17292;51.600;4.994;2023-08-24T12:09:49;14.65;;;4.47;;
30505;SDS011;17292;51.600;4.994;2023-08-24T12:12:18;9.15;;;4.30;;
30505;SDS011;17292;51.600;4.994;2023-08-24T12:14:46;14.32;;;4.82;;
30505;SDS011;17292;51.600;4.994;2023-08-24T12:17:15;11.50;;;5.22;;
30505;SDS011;17292;51.600;4.994;2023-08-24T12:19:42;14.40;;;4.82;;
30505;SDS011;17292;51.600;4.994;2023-08-24T12:22:14;7.53;;;4.90;;
30505;SDS011;17292;51.600;4.994;2023-08-24T12:24:46;11.43;;;5.13;;
30505;SDS011;17292;51.600;4.994;2023-08-24T12:27:22;14.50;;;5.45;;
30505;SDS011;17292;51.600;4.994;2023-08-24T12:29:49;16.88;;;5.35;;
30505;SDS011;17292;51.600;4.994;2023-08-24T12:32:15;12.73;;;5.15;;
30505;SDS011;17292;51.600;4.994;2023-08-24T12:34:44;16.45;;;4.75;;
30505;SDS011;17292;51.600;4.994;2023-08-24T12:37:11;11.20;;;4.72;;
30505;SDS011;17292;51.600;4.994;2023-08-24T12:39:38;11.07;;;4.93;;
30505;SDS011;17292;51.600;4.994;2023-08-24T12:42:05;14.60;;;5.32;;
30505;SDS011;17292;51.600;4.994;2023-08-24T12:44:31;9.63;;;4.85;;
30505;SDS011;17292;51.600;4.994;2023-08-24T12:47:00;11.73;;;4.35;;
30505;SDS011;17292;51.600;4.994;2023-08-24T12:49:27;9.85;;;5.00;;
30505;SDS011;17292;51.600;4.994;2023-08-24T12:51:53;13.65;;;5.07;;
30505;SDS011;17292;51.600;4.994;2023-08-24T12:54:19;14.05;;;5.18;;
30505;SDS011;17292;51.600;4.994;2023-08-24T12:56:45;14.80;;;4.90;;
30505;SDS011;17292;51.600;4.994;2023-08-24T12:59:11;11.48;;;4.72;;
30505;SDS011;17292;51.600;4.994;2023-08-24T13:01:37;11.43;;;5.78;;
30505;SDS011;17292;51.600;4.994;2023-08-24T13:04:04;14.55;;;5.18;;
30505;SDS011;17292;51.600;4.994;2023-08-24T13:06:30;12.32;;;5.20;;
30505;SDS011;17292;51.600;4.994;2023-08-24T13:08:56;12.75;;;5.35;;
30505;SDS011;17292;51.600;4.994;2023-08-24T13:11:23;14.77;;;5.70;;
30505;SDS011;17292;51.600;4.994;2023-08-24T13:13:49;20.00;;;5.47;;
30505;SDS011;17292;51.600;4.994;2023-08-24T13:16:15;17.40;;;5.47;;
30505;SDS011;17292;51.600;4.994;2023-08-24T13:18:42;19.45;;;6.00;;
30505;SDS011;17292;51.600;4.994;2023-08-24T13:21:15;18.90;;;5.50;;
30505;SDS011;17292;51.600;4.994;2023-08-24T13:23:41;16.77;;;5.40;;
30505;SDS011;17292;51.600;4.994;2023-08-24T13:26:12;15.95;;;5.35;;
30505;SDS011;17292;51.600;4.994;2023-08-24T13:28:43;16.65;;;5.50;;
30505;SDS011;17292;51.600;4.994;2023-08-24T13:31:09;16.38;;;5.47;;
30505;SDS011;17292;51.600;4.994;2023-08-24T13:33:35;18.60;;;6.22;;
30505;SDS011;17292;51.600;4.994;2023-08-24T13:36:01;13.90;;;5.50;;
30505;SDS011;17292;51.600;4.994;2023-08-24T13:38:27;16.15;;;4.93;;
30505;SDS011;17292;51.600;4.994;2023-08-24T13:40:53;10.68;;;5.15;;
30505;SDS011;17292;51.600;4.994;2023-08-24T13:43:19;12.93;;;5.03;;
30505;SDS011;17292;51.600;4.994;2023-08-24T13:45:46;15.80;;;5.18;;
30505;SDS011;17292;51.600;4.994;2023-08-24T13:48:12;16.50;;;5.85;;
30505;SDS011;17292;51.600;4.994;2023-08-24T13:50:38;15.93;;;4.70;;
30505;SDS011;17292;51.600;4.994;2023-08-24T13:53:04;11.77;;;5.50;;
30505;SDS011;17292;51.600;4.994;2023-08-24T13:55:31;14.35;;;4.93;;
30505;SDS011;17292;51.600;4.994;2023-08-24T13:57:57;22.33;;;5.75;;
30505;SDS011;17292;51.600;4.994;2023-08-24T14:00:23;13.18;;;5.60;;
30505;SDS011;17292;51.600;4.994;2023-08-24T14:02:50;18.88;;;5.65;;
30505;SDS011;17292;51.600;4.994;2023-08-24T14:05:16;11.95;;;5.20;;
30505;SDS011;17292;51.600;4.994;2023-08-24T14:07:42;15.45;;;5.55;;
30505;SDS011;17292;51.600;4.994;2023-08-24T14:10:08;12.48;;;5.63;;
30505;SDS011;17292;51.600;4.994;2023-08-24T14:12:35;12.93;;;5.53;;
30505;SDS011;17292;51.600;4.994;2023-08-24T14:15:01;11.20;;;4.53;;
30505;SDS011;17292;51.600;4.994;2023-08-24T14:17:27;10.23;;;5.22;;
30505;SDS011;17292;51.600;4.994;2023-08-24T14:19:53;12.65;;;5.38;;
30505;SDS011;17292;51.600;4.994;2023-08-24T14:22:19;12.30;;;5.63;;
30505;SDS011;17292;51.600;4.994;2023-08-24T14:24:45;15.05;;;4.90;;
30505;SDS011;17292;51.600;4.994;2023-08-24T14:27:12;14.57;;;5.60;;
30505;SDS011;17292;51.600;4.994;2023-08-24T14:29:38;14.13;;;5.00;;
30505;SDS011;17292;51.600;4.994;2023-08-24T14:32:04;17.80;;;5.45;;
30505;SDS011;17292;51.600;4.994;2023-08-24T14:34:30;15.43;;;5.35;;
30505;SDS011;17292;51.600;4.994;2023-08-24T14:36:56;24.35;;;5.78;;
30505;SDS011;17292;51.600;4.994;2023-08-24T14:39:22;12.52;;;4.97;;
30505;SDS011;17292;51.600;4.994;2023-08-24T14:41:48;20.77;;;5.43;;
30505;SDS011;17292;51.600;4.994;2023-08-24T14:44:15;13.25;;;5.10;;
30505;SDS011;17292;51.600;4.994;2023-08-24T14:46:41;16.98;;;5.70;;
30505;SDS011;17292;51.600;4.994;2023-08-24T14:49:07;25.05;;;5.53;;
30505;SDS011;17292;51.600;4.994;2023-08-24T14:51:33;13.05;;;5.18;;
30505;SDS011;17292;51.600;4.994;2023-08-24T14:53:59;16.30;;;5.28;;